createdAt,value
2024-02-29T13:27:05.621Z,50.51
2024-02-29T13:28:04.487Z,50.30
2024-02-29T13:29:04.777Z,50.77
2024-02-29T13:30:04.500Z,51.06
2024-02-29T13:31:05.346Z,50.84
2024-02-29T13:32:05.473Z,50.69
2024-02-29T13:33:04.672Z,50.84
2024-02-29T13:34:05.223Z,50.68
2024-02-29T13:35:04.774Z,51.14
2024-02-29T13:36:04.731Z,51.26
2024-02-29T13:37:04.799Z,51.70
2024-02-29T13:38:04.727Z,51.38
2024-02-29T13:39:05.322Z,50.68
2024-02-29T13:40:04.857Z,50.49
2024-02-29T13:41:04.835Z,50.08
2024-02-29T13:42:04.767Z,49.94
2024-02-29T13:43:05.417Z,50.03
2024-02-29T13:44:04.828Z,49.78
2024-02-29T13:45:04.808Z,49.70
2024-02-29T13:46:04.872Z,49.44
2024-02-29T13:47:05.066Z,49.39
2024-02-29T13:48:05.259Z,49.18
2024-02-29T13:49:20.868Z,49.39
2024-02-29T13:50:05.953Z,49.18
2024-02-29T13:51:04.975Z,48.57
2024-02-29T13:52:05.481Z,48.31
2024-02-29T13:53:04.858Z,48.27
2024-02-29T13:54:04.968Z,48.10
2024-02-29T13:55:04.988Z,47.78
2024-02-29T13:56:05.272Z,47.75
2024-02-29T13:57:04.870Z,48.04
2024-02-29T13:58:05.009Z,48.08
2024-02-29T13:59:04.792Z,48.23
2024-02-29T14:00:04.937Z,48.11
2024-02-29T14:01:05.938Z,48.40
2024-02-29T14:02:04.977Z,48.45
2024-02-29T14:03:04.897Z,48.23
2024-02-29T14:04:04.896Z,47.80
2024-02-29T14:05:05.109Z,47.79
2024-02-29T14:06:05.127Z,48.03
2024-02-29T14:07:05.311Z,47.49
2024-02-29T14:08:04.968Z,47.15
2024-02-29T14:09:04.994Z,46.40
2024-02-29T14:10:05.175Z,46.52
2024-02-29T14:11:05.712Z,45.86
2024-02-29T14:12:05.166Z,45.72
2024-02-29T14:13:05.147Z,45.07
2024-02-29T14:14:05.599Z,44.39
2024-02-29T14:15:05.291Z,43.27
2024-02-29T14:16:05.459Z,43.85
2024-02-29T14:17:06.462Z,43.48
2024-02-29T14:18:05.493Z,42.57
2024-02-29T14:19:05.469Z,42.64
2024-02-29T14:20:05.629Z,43.55
2024-02-29T14:21:05.537Z,43.64
2024-02-29T14:22:05.535Z,44.05
2024-02-29T14:23:05.766Z,44.36
2024-02-29T14:24:05.566Z,43.45
2024-02-29T14:25:05.893Z,42.99
2024-02-29T14:26:05.906Z,42.36
2024-02-29T14:27:06.077Z,41.46
2024-02-29T14:28:06.273Z,41.36
2024-02-29T14:29:06.592Z,41.30
2024-02-29T14:30:06.171Z,42.55
2024-02-29T14:31:07.286Z,41.56
2024-02-29T14:32:06.872Z,42.83
2024-02-29T14:33:06.110Z,42.51
2024-02-29T14:34:06.019Z,43.20
2024-02-29T14:35:06.151Z,43.58
2024-02-29T14:36:06.057Z,43.17
2024-02-29T14:37:06.276Z,42.77
2024-02-29T14:38:05.982Z,42.55
2024-02-29T14:39:05.816Z,43.16
2024-02-29T14:40:06.196Z,44.17
2024-02-29T14:41:06.091Z,43.67
2024-02-29T14:42:06.140Z,41.41
2024-02-29T14:43:06.376Z,42.10
2024-02-29T14:44:05.917Z,43.30
2024-02-29T14:45:05.930Z,44.94
2024-02-29T14:46:06.196Z,45.69
2024-02-29T14:47:05.946Z,45.03
2024-02-29T14:48:05.990Z,44.41
2024-02-29T14:49:06.009Z,43.49
2024-02-29T14:50:05.916Z,43.54
2024-02-29T14:51:06.156Z,44.19
2024-02-29T14:52:06.079Z,44.66
2024-02-29T14:53:06.139Z,44.46
2024-02-29T14:54:06.072Z,44.07
2024-02-29T14:55:06.135Z,42.30
2024-02-29T14:56:06.095Z,42.76
2024-02-29T14:57:06.189Z,44.60
2024-02-29T14:58:06.100Z,44.94
2024-02-29T14:59:06.254Z,45.41
2024-02-29T15:00:06.090Z,45.72
2024-02-29T15:01:06.081Z,44.16
2024-02-29T15:02:06.101Z,44.29
2024-02-29T15:03:06.208Z,44.26
2024-02-29T15:04:07.205Z,44.29
2024-02-29T15:05:07.023Z,43.81
2024-02-29T15:06:06.154Z,42.15
2024-02-29T15:07:06.174Z,42.27
2024-02-29T15:08:06.161Z,39.89
2024-02-29T15:09:06.838Z,38.71
2024-02-29T15:10:07.571Z,37.92
2024-02-29T15:11:06.687Z,38.10
2024-02-29T15:12:07.337Z,40.91
2024-02-29T15:13:06.653Z,41.87
2024-02-29T15:14:06.619Z,42.44
2024-02-29T15:15:06.671Z,39.99
2024-02-29T15:16:06.615Z,41.04
2024-02-29T15:17:06.489Z,41.55
2024-02-29T15:18:06.663Z,42.74
2024-02-29T15:19:06.780Z,40.64
2024-02-29T15:20:06.825Z,39.78
2024-02-29T15:21:06.686Z,38.69
2024-02-29T15:22:06.704Z,38.58
2024-02-29T15:23:06.609Z,41.70
2024-02-29T15:24:06.726Z,43.29
2024-02-29T15:25:06.626Z,40.32
2024-02-29T15:26:06.727Z,38.50
2024-02-29T15:27:06.878Z,37.95
2024-02-29T15:28:06.925Z,38.06
2024-02-29T15:29:06.608Z,37.25
2024-02-29T15:30:07.266Z,37.00
2024-02-29T15:31:07.146Z,37.01
2024-02-29T15:32:07.226Z,36.61
2024-02-29T15:33:06.997Z,36.77
2024-02-29T15:34:07.067Z,36.67
2024-02-29T15:35:06.995Z,36.62
2024-02-29T15:36:07.599Z,36.63
2024-02-29T15:37:08.003Z,36.65
2024-02-29T15:38:07.080Z,36.52
2024-02-29T15:39:07.113Z,36.68
2024-02-29T15:40:07.272Z,36.75
2024-02-29T15:41:07.289Z,36.72
2024-02-29T15:42:07.311Z,36.54
2024-02-29T15:43:07.049Z,36.50
2024-02-29T15:44:07.151Z,36.66
2024-02-29T15:45:07.348Z,36.82
2024-02-29T15:46:07.301Z,36.78
2024-02-29T15:47:07.227Z,36.76
2024-02-29T15:48:07.670Z,36.97
2024-02-29T15:49:07.317Z,37.77
2024-02-29T15:50:07.258Z,37.87
2024-02-29T15:51:07.202Z,37.56
2024-02-29T15:52:07.499Z,37.60
2024-02-29T15:53:07.422Z,38.35
2024-02-29T15:54:07.229Z,38.29
2024-02-29T15:55:07.326Z,37.66
2024-02-29T15:56:07.397Z,38.85
2024-02-29T15:57:07.351Z,38.96
2024-02-29T15:58:08.312Z,38.81
2024-02-29T15:59:07.239Z,37.94
2024-02-29T16:00:07.445Z,37.85
2024-02-29T16:01:08.258Z,38.04
2024-02-29T16:02:07.512Z,38.15
2024-02-29T16:03:09.081Z,37.91
2024-02-29T16:04:08.298Z,38.14
2024-02-29T16:05:07.831Z,37.97
2024-02-29T16:06:07.766Z,38.18
2024-02-29T16:07:07.884Z,38.19
2024-02-29T16:08:07.733Z,38.08
2024-02-29T16:09:08.411Z,38.24
2024-02-29T16:10:08.589Z,38.13
2024-02-29T16:11:07.907Z,38.43
2024-02-29T16:12:07.968Z,38.31
2024-02-29T16:13:08.040Z,38.03
2024-02-29T16:14:07.969Z,38.18
2024-02-29T16:15:07.764Z,38.05
2024-02-29T16:16:08.845Z,38.36
2024-02-29T16:17:07.674Z,37.90
2024-02-29T16:18:07.816Z,38.05
2024-02-29T16:19:07.799Z,37.89
2024-02-29T16:20:07.791Z,38.14
2024-02-29T16:21:08.025Z,38.19
2024-02-29T16:22:08.009Z,38.27
2024-02-29T16:23:07.957Z,38.26
2024-02-29T16:24:08.667Z,38.56
2024-02-29T16:25:08.047Z,38.26
2024-02-29T16:26:08.210Z,37.99
2024-02-29T16:27:08.133Z,37.98
2024-02-29T16:28:08.989Z,38.20
2024-02-29T16:29:08.411Z,38.34
2024-02-29T16:30:08.315Z,38.30
2024-02-29T16:31:08.396Z,38.29
2024-02-29T16:32:08.363Z,38.48
2024-02-29T16:33:08.688Z,38.73
2024-02-29T16:34:08.619Z,38.77
2024-02-29T16:35:08.304Z,39.12
2024-02-29T16:36:08.479Z,39.29
2024-02-29T16:37:08.482Z,38.66
2024-02-29T16:38:08.496Z,38.41
2024-02-29T16:39:08.327Z,38.62
2024-02-29T16:40:08.509Z,38.66
2024-02-29T16:41:08.714Z,38.58
2024-02-29T16:42:08.436Z,38.39
2024-02-29T16:43:08.742Z,38.11
2024-02-29T16:44:08.686Z,38.86
2024-02-29T16:45:08.541Z,40.00
2024-02-29T16:46:10.512Z,41.07
2024-02-29T16:47:09.120Z,41.69
2024-02-29T16:48:08.606Z,41.65
2024-02-29T16:49:08.694Z,40.76
2024-02-29T16:50:08.773Z,40.55
2024-02-29T16:51:08.700Z,40.21
2024-02-29T16:52:08.568Z,39.40
2024-02-29T16:53:08.538Z,39.39
2024-02-29T16:54:08.702Z,39.53
2024-02-29T16:55:08.686Z,39.72
2024-02-29T16:56:08.776Z,39.58
2024-02-29T16:57:08.826Z,39.89
2024-02-29T16:58:08.829Z,40.44
2024-02-29T16:59:08.740Z,40.30
2024-02-29T17:00:08.755Z,39.85
2024-02-29T17:01:08.966Z,39.88
2024-02-29T17:02:08.865Z,39.57
2024-02-29T17:03:08.794Z,39.15
2024-02-29T17:04:09.156Z,39.22
2024-02-29T17:05:09.051Z,39.54
2024-02-29T17:06:08.968Z,39.09
2024-02-29T17:07:09.084Z,39.18
2024-02-29T17:08:09.129Z,39.08
2024-02-29T17:09:09.287Z,39.21
2024-02-29T17:10:09.269Z,39.13
2024-02-29T17:11:09.406Z,39.18
2024-02-29T17:12:09.477Z,39.68
2024-02-29T17:13:09.437Z,39.33
2024-02-29T17:14:09.599Z,39.22
2024-02-29T17:15:09.383Z,39.19
2024-02-29T17:16:09.487Z,39.02
2024-02-29T17:17:09.525Z,39.07
2024-02-29T17:18:09.525Z,39.07
2024-02-29T17:19:09.625Z,39.48
2024-02-29T17:20:09.445Z,39.80
2024-02-29T17:21:09.399Z,40.04
2024-02-29T17:22:09.652Z,40.21
2024-02-29T17:23:09.600Z,40.43
2024-02-29T17:24:09.730Z,40.81
2024-02-29T17:25:09.631Z,41.58
2024-02-29T17:26:09.631Z,40.82
2024-02-29T17:27:09.711Z,41.31
2024-02-29T17:28:09.580Z,41.06
2024-02-29T17:29:09.790Z,41.44
2024-02-29T17:30:09.810Z,41.94
2024-02-29T17:31:10.087Z,42.02
2024-02-29T17:32:09.864Z,41.82
2024-02-29T17:33:09.716Z,41.72
2024-02-29T17:34:09.836Z,42.16
2024-02-29T17:35:09.734Z,41.89
2024-02-29T17:36:10.001Z,41.70
2024-02-29T17:37:09.698Z,41.83
2024-02-29T17:38:09.706Z,41.94
2024-02-29T17:39:09.767Z,41.85
2024-02-29T17:40:09.808Z,41.83
2024-02-29T17:41:09.761Z,41.82
2024-02-29T17:42:09.928Z,42.11
2024-02-29T17:43:09.971Z,42.56
2024-02-29T17:44:09.939Z,43.22
2024-02-29T17:45:09.864Z,42.81
2024-02-29T17:46:10.165Z,42.52
2024-02-29T17:47:10.037Z,42.61
2024-02-29T17:48:10.122Z,42.68
2024-02-29T17:49:10.194Z,43.32
2024-02-29T17:50:10.128Z,44.51
2024-02-29T17:51:10.095Z,44.88
2024-02-29T17:52:10.272Z,45.55
2024-02-29T17:53:10.378Z,46.20
2024-02-29T17:54:10.284Z,46.25
2024-02-29T17:55:10.500Z,46.12
2024-02-29T17:56:10.530Z,45.98
2024-02-29T17:57:10.338Z,45.74
2024-02-29T17:58:10.418Z,45.84
2024-02-29T17:59:10.659Z,46.04
2024-02-29T18:00:10.562Z,46.57
2024-02-29T18:01:10.632Z,47.64
2024-02-29T18:02:10.696Z,48.15
2024-02-29T18:03:10.552Z,48.38
2024-02-29T18:04:10.610Z,48.64
2024-02-29T18:05:10.558Z,47.60
2024-02-29T18:06:10.556Z,47.19
2024-02-29T18:07:10.615Z,47.21
2024-02-29T18:08:10.920Z,47.36
2024-02-29T18:09:10.792Z,48.99
2024-02-29T18:10:10.892Z,50.23
2024-02-29T18:11:10.707Z,50.43
2024-02-29T18:12:10.767Z,50.39
2024-02-29T18:13:11.223Z,50.81
2024-02-29T18:14:10.743Z,50.99
2024-02-29T18:15:10.682Z,51.77
2024-02-29T18:16:10.799Z,51.94
2024-02-29T18:17:10.778Z,51.43
2024-02-29T18:18:10.856Z,51.44
2024-02-29T18:19:10.979Z,52.32
2024-02-29T18:20:10.906Z,52.70
2024-02-29T18:21:10.821Z,53.47
2024-02-29T18:22:10.801Z,54.01
2024-02-29T18:23:10.758Z,54.27
2024-02-29T18:24:10.697Z,54.17
2024-02-29T18:25:10.992Z,54.73
2024-02-29T18:26:10.927Z,54.67
2024-02-29T18:27:10.988Z,54.97
2024-02-29T18:28:11.030Z,55.28
2024-02-29T18:29:10.988Z,55.43
2024-02-29T18:30:11.189Z,55.42
2024-02-29T18:31:11.131Z,55.45
2024-02-29T18:32:11.081Z,55.77
2024-02-29T18:33:11.272Z,55.70
2024-02-29T18:34:11.221Z,55.26
2024-02-29T18:35:11.142Z,55.14
2024-02-29T18:36:11.249Z,55.36
2024-02-29T18:37:11.336Z,55.65
2024-02-29T18:38:11.378Z,56.01
2024-02-29T18:39:13.936Z,56.37
2024-02-29T18:40:11.516Z,56.85
2024-02-29T18:41:11.600Z,56.92
2024-02-29T18:42:11.412Z,56.79
2024-02-29T18:43:11.393Z,56.88
2024-02-29T18:44:11.392Z,57.17
2024-02-29T18:45:11.286Z,57.22
2024-02-29T18:46:11.363Z,57.21
2024-02-29T18:47:11.397Z,57.34
2024-02-29T18:48:11.374Z,57.18
2024-02-29T18:49:11.573Z,57.70
2024-02-29T18:50:11.430Z,57.58
2024-02-29T18:51:11.462Z,58.16
2024-02-29T18:52:11.441Z,57.83
2024-02-29T18:53:11.424Z,57.82
2024-02-29T18:54:11.451Z,57.99
2024-02-29T18:55:11.532Z,58.64
2024-02-29T18:56:11.561Z,59.05
2024-02-29T18:57:11.610Z,58.49
2024-02-29T18:58:11.598Z,58.29
2024-02-29T18:59:11.429Z,58.28
2024-02-29T19:00:11.520Z,58.81
2024-02-29T19:01:11.580Z,59.64
2024-02-29T19:02:11.704Z,59.79
2024-02-29T19:03:11.508Z,59.71
2024-02-29T19:04:11.532Z,58.85
2024-02-29T19:05:11.631Z,58.67
2024-02-29T19:06:11.655Z,58.80
2024-02-29T19:07:11.600Z,59.14
2024-02-29T19:08:11.631Z,59.18
2024-02-29T19:09:11.565Z,58.98
2024-02-29T19:10:11.588Z,58.89
2024-02-29T19:11:11.682Z,58.46
2024-02-29T19:12:11.784Z,58.35
2024-02-29T19:13:11.709Z,58.72
2024-02-29T19:14:11.619Z,58.78
2024-02-29T19:15:11.680Z,58.56
2024-02-29T19:16:11.695Z,58.31
2024-02-29T19:17:11.619Z,58.30
2024-02-29T19:18:11.619Z,58.33
2024-02-29T19:19:11.818Z,59.07
2024-02-29T19:20:11.903Z,59.41
2024-02-29T19:21:12.745Z,59.53
2024-02-29T19:22:11.710Z,59.77
2024-02-29T19:23:11.846Z,59.94
2024-02-29T19:24:11.921Z,60.12
2024-02-29T19:25:12.000Z,60.27
2024-02-29T19:26:11.976Z,60.31
2024-02-29T19:27:12.019Z,60.18
2024-02-29T19:28:12.128Z,60.13
2024-02-29T19:29:12.003Z,60.05
2024-02-29T19:30:12.109Z,60.06
2024-02-29T19:31:12.120Z,60.03
2024-02-29T19:32:12.142Z,60.22
2024-02-29T19:33:12.181Z,60.23
2024-02-29T19:34:12.282Z,60.33
2024-02-29T19:35:12.265Z,60.10
2024-02-29T19:36:12.291Z,59.85
2024-02-29T19:37:12.300Z,59.60
2024-02-29T19:38:12.246Z,59.59
2024-02-29T19:39:12.377Z,59.97
2024-02-29T19:40:12.408Z,59.64
2024-02-29T19:41:12.271Z,59.55
2024-02-29T19:42:12.311Z,59.86
2024-02-29T19:43:12.361Z,60.09
2024-02-29T19:44:12.385Z,60.00
2024-02-29T19:45:12.424Z,60.27
2024-02-29T19:46:12.443Z,60.95
2024-02-29T19:47:12.840Z,60.98
2024-02-29T19:48:12.591Z,61.15
2024-02-29T19:49:12.669Z,61.08
2024-02-29T19:50:12.652Z,61.15
2024-02-29T19:51:12.572Z,60.94
2024-02-29T19:52:12.667Z,60.47
2024-02-29T19:53:12.668Z,60.46
2024-02-29T19:54:12.785Z,61.14
2024-02-29T19:55:12.880Z,61.09
2024-02-29T19:56:12.718Z,61.01
2024-02-29T19:57:12.817Z,61.67
2024-02-29T19:58:12.883Z,61.77
2024-02-29T19:59:12.953Z,61.54
2024-02-29T20:00:12.841Z,61.97
2024-02-29T20:01:12.970Z,62.29
2024-02-29T20:02:12.957Z,61.66
2024-02-29T20:03:12.911Z,61.55
2024-02-29T20:04:12.810Z,61.43
2024-02-29T20:05:12.787Z,61.36
2024-02-29T20:06:12.853Z,61.63
2024-02-29T20:07:12.855Z,61.67
2024-02-29T20:08:12.726Z,61.72
2024-02-29T20:09:12.772Z,61.82
2024-02-29T20:10:12.901Z,61.97
2024-02-29T20:11:12.963Z,61.50
2024-02-29T20:12:14.821Z,61.43
2024-02-29T20:13:13.064Z,61.64
2024-02-29T20:14:12.969Z,61.76
2024-02-29T20:15:15.675Z,62.06
2024-02-29T20:16:13.170Z,62.37
2024-02-29T20:17:13.166Z,62.65
2024-02-29T20:18:13.078Z,62.48
2024-02-29T20:19:15.187Z,62.53
2024-02-29T20:20:13.072Z,62.25
2024-02-29T20:21:13.062Z,62.25
2024-02-29T20:22:13.109Z,62.12
2024-02-29T20:23:13.146Z,62.23
2024-02-29T20:24:13.110Z,62.56
2024-02-29T20:25:13.670Z,62.52
2024-02-29T20:26:13.092Z,62.43
2024-02-29T20:27:13.117Z,62.50
2024-02-29T20:28:13.173Z,62.67
2024-02-29T20:29:13.115Z,62.78
2024-02-29T20:30:13.038Z,62.82
2024-02-29T20:31:13.143Z,62.68
2024-02-29T20:32:13.141Z,63.43
2024-02-29T20:33:13.185Z,63.44
2024-02-29T20:34:13.938Z,63.24
2024-02-29T20:35:13.060Z,63.02
2024-02-29T20:36:13.088Z,62.78
2024-02-29T20:37:13.118Z,63.02
2024-02-29T20:38:13.065Z,63.05
2024-02-29T20:39:13.152Z,63.53
2024-02-29T20:40:13.174Z,63.67
2024-02-29T20:41:13.064Z,63.43
2024-02-29T20:42:13.244Z,63.24
2024-02-29T20:43:13.174Z,63.06
2024-02-29T20:44:13.129Z,63.27
2024-02-29T20:45:16.195Z,63.84
2024-02-29T20:46:13.198Z,64.29
2024-02-29T20:47:13.151Z,64.34
2024-02-29T20:48:14.841Z,64.45
2024-02-29T20:49:13.012Z,64.53
2024-02-29T20:50:13.164Z,64.85
2024-02-29T20:51:13.166Z,64.78
2024-02-29T20:52:16.474Z,65.16
2024-02-29T20:53:13.207Z,65.40
2024-02-29T20:54:13.005Z,65.56
2024-02-29T20:55:13.162Z,65.42
2024-02-29T20:56:13.095Z,65.67
2024-02-29T20:57:13.221Z,65.60
2024-02-29T20:58:13.243Z,65.57
2024-02-29T20:59:13.127Z,65.44
2024-02-29T21:00:13.533Z,65.33
2024-02-29T21:01:13.206Z,65.24
2024-02-29T21:02:13.350Z,65.58
2024-02-29T21:03:13.254Z,65.90
2024-02-29T21:04:13.202Z,66.10
2024-02-29T21:05:13.150Z,66.25
2024-02-29T21:06:13.185Z,66.05
2024-02-29T21:07:13.203Z,65.86
2024-02-29T21:08:13.184Z,65.76
2024-02-29T21:09:13.199Z,65.78
2024-02-29T21:10:13.227Z,65.78
2024-02-29T21:11:13.882Z,65.68
2024-02-29T21:12:13.194Z,65.48
2024-02-29T21:13:15.924Z,65.27
2024-02-29T21:14:13.217Z,65.21
2024-02-29T21:15:13.255Z,65.13
2024-02-29T21:16:13.345Z,65.10
2024-02-29T21:17:13.164Z,65.10
2024-02-29T21:18:13.293Z,65.37
2024-02-29T21:19:13.240Z,65.82
2024-02-29T21:20:13.313Z,66.34
2024-02-29T21:21:14.198Z,66.42
2024-02-29T21:22:13.336Z,66.13
2024-02-29T21:23:13.114Z,66.00
2024-02-29T21:24:13.104Z,66.20
2024-02-29T21:25:13.485Z,66.73
2024-02-29T21:26:13.276Z,66.81
2024-02-29T21:27:13.262Z,66.66
2024-02-29T21:28:13.256Z,66.55
2024-02-29T21:29:13.302Z,66.24
2024-02-29T21:30:13.232Z,66.36
2024-02-29T21:31:13.277Z,66.57
2024-02-29T21:32:13.761Z,66.57
2024-02-29T21:33:13.293Z,66.28
2024-02-29T21:34:13.296Z,66.11
2024-02-29T21:35:13.213Z,65.98
2024-02-29T21:36:13.262Z,65.89
2024-02-29T21:37:13.846Z,66.17
2024-02-29T21:38:13.307Z,66.40
2024-02-29T21:39:13.911Z,66.43
2024-02-29T21:40:13.546Z,66.30
2024-02-29T21:41:13.349Z,66.01
2024-02-29T21:42:13.395Z,65.79
2024-02-29T21:43:13.334Z,65.54
2024-02-29T21:44:13.304Z,65.27
2024-02-29T21:45:13.294Z,65.62
2024-02-29T21:46:13.360Z,65.94
2024-02-29T21:47:13.352Z,65.83
2024-02-29T21:48:13.434Z,65.17
2024-02-29T21:49:13.450Z,64.89
2024-02-29T21:50:13.406Z,64.61
2024-02-29T21:51:13.347Z,64.45
2024-02-29T21:52:13.383Z,63.78
2024-02-29T21:53:13.292Z,63.43
2024-02-29T21:54:13.284Z,63.08
2024-02-29T21:55:13.456Z,63.36
2024-02-29T21:56:13.327Z,62.89
2024-02-29T21:57:15.289Z,62.71
2024-02-29T21:58:13.390Z,62.62
2024-02-29T21:59:13.329Z,62.44
2024-02-29T22:00:13.299Z,62.14
2024-02-29T22:01:13.441Z,61.82
2024-02-29T22:02:13.420Z,61.73
2024-02-29T22:03:13.305Z,61.78
2024-02-29T22:04:13.424Z,61.36
2024-02-29T22:05:13.434Z,61.31
2024-02-29T22:06:13.400Z,61.30
2024-02-29T22:07:13.428Z,61.53
2024-02-29T22:08:13.372Z,62.13
2024-02-29T22:09:13.468Z,62.11
2024-02-29T22:10:13.445Z,62.47
2024-02-29T22:11:13.315Z,62.54
2024-02-29T22:12:13.484Z,62.76
2024-02-29T22:13:13.511Z,62.52
2024-02-29T22:14:14.990Z,62.82
2024-02-29T22:15:13.243Z,63.09
2024-02-29T22:16:13.358Z,63.08
2024-02-29T22:17:13.355Z,62.85
2024-02-29T22:18:13.362Z,63.07
2024-02-29T22:19:13.368Z,63.40
2024-02-29T22:20:13.274Z,63.37
2024-02-29T22:21:13.266Z,63.33
2024-02-29T22:22:13.470Z,63.56
2024-02-29T22:23:13.285Z,63.72
2024-02-29T22:24:15.816Z,63.98
2024-02-29T22:25:13.331Z,63.79
2024-02-29T22:26:13.417Z,63.66
2024-02-29T22:27:13.392Z,63.73
2024-02-29T22:28:13.369Z,63.90
2024-02-29T22:29:13.349Z,64.10
2024-02-29T22:30:13.332Z,64.19
2024-02-29T22:31:13.480Z,64.04
2024-02-29T22:32:13.365Z,63.97
2024-02-29T22:33:13.371Z,64.06
2024-02-29T22:34:13.407Z,63.99
2024-02-29T22:35:13.413Z,63.92
2024-02-29T22:36:13.419Z,63.80
2024-02-29T22:37:14.848Z,63.63
2024-02-29T22:38:13.333Z,63.62
2024-02-29T22:39:13.310Z,63.53
2024-02-29T22:40:13.304Z,63.61
2024-02-29T22:41:13.340Z,63.80
2024-02-29T22:42:13.545Z,63.84
2024-02-29T22:43:13.574Z,64.36
2024-02-29T22:44:13.507Z,64.88
2024-02-29T22:45:13.835Z,64.85
2024-02-29T22:46:13.811Z,64.56
2024-02-29T22:47:13.645Z,64.24
2024-02-29T22:48:13.714Z,63.88
2024-02-29T22:49:13.649Z,63.87
2024-02-29T22:50:13.792Z,63.92
2024-02-29T22:51:13.786Z,63.78
2024-02-29T22:52:13.939Z,63.35
2024-02-29T22:53:13.868Z,63.56
2024-02-29T22:54:13.996Z,63.58
2024-02-29T22:55:14.037Z,63.30
2024-02-29T22:56:14.123Z,63.19
2024-02-29T22:57:14.130Z,63.06
2024-02-29T22:58:14.174Z,63.10
2024-02-29T22:59:14.030Z,63.27
2024-02-29T23:00:14.172Z,63.27
2024-02-29T23:01:14.188Z,63.22
2024-02-29T23:02:14.806Z,63.15
2024-02-29T23:03:13.988Z,63.18
2024-02-29T23:04:14.128Z,63.57
2024-02-29T23:05:14.138Z,63.35
2024-02-29T23:06:14.378Z,63.31
2024-02-29T23:07:14.460Z,63.30
2024-02-29T23:08:14.130Z,63.36
2024-02-29T23:09:14.297Z,63.24
2024-02-29T23:10:14.349Z,63.31
2024-02-29T23:11:15.029Z,63.17
2024-02-29T23:12:14.432Z,63.21
2024-02-29T23:13:14.406Z,62.96
2024-02-29T23:14:14.441Z,62.87
2024-02-29T23:15:14.684Z,62.89
2024-02-29T23:16:14.692Z,63.29
2024-02-29T23:17:14.578Z,63.66
2024-02-29T23:18:14.583Z,63.70
2024-02-29T23:19:14.582Z,63.50
2024-02-29T23:20:14.585Z,63.77
2024-02-29T23:21:14.773Z,63.84
2024-02-29T23:22:14.760Z,63.62
2024-02-29T23:23:14.665Z,63.66
2024-02-29T23:24:14.713Z,63.69
2024-02-29T23:25:14.822Z,63.68
2024-02-29T23:26:14.620Z,63.71
2024-02-29T23:27:14.793Z,63.68
2024-02-29T23:28:14.715Z,63.61
2024-02-29T23:29:14.834Z,63.65
2024-02-29T23:30:14.759Z,64.02
2024-02-29T23:31:14.756Z,64.26
2024-02-29T23:32:14.820Z,63.94
2024-02-29T23:33:14.833Z,64.23
2024-02-29T23:34:14.733Z,64.25
2024-02-29T23:35:14.739Z,64.10
2024-02-29T23:36:14.732Z,64.30
2024-02-29T23:37:14.772Z,64.18
2024-02-29T23:38:14.707Z,64.06
2024-02-29T23:39:14.823Z,63.88
2024-02-29T23:40:14.882Z,63.77
2024-02-29T23:41:14.930Z,63.62
2024-02-29T23:42:15.077Z,63.80
2024-02-29T23:43:15.070Z,63.94
2024-02-29T23:44:15.077Z,64.17
2024-02-29T23:45:15.213Z,65.37
2024-02-29T23:46:15.176Z,65.77
2024-02-29T23:47:15.175Z,65.68
2024-02-29T23:48:16.266Z,65.54
2024-02-29T23:49:15.370Z,65.70
2024-02-29T23:50:15.297Z,65.57
2024-02-29T23:51:15.369Z,65.82
2024-02-29T23:52:15.466Z,66.20
2024-02-29T23:53:15.490Z,66.93
2024-02-29T23:54:15.469Z,67.59
2024-02-29T23:55:15.592Z,68.28
2024-02-29T23:56:15.588Z,68.25
2024-02-29T23:57:15.918Z,68.03
2024-02-29T23:58:15.889Z,67.72
2024-02-29T23:59:15.785Z,67.55
